Time;durP1;ratioP1;P1;durP2;ratioP2;P2;SDS_P1;SDS_P2;PMS_P1;PMS_P2;Temp;Humidity;BMP_temperature;BMP_pressure;BME280_temperature;BME280_humidity;BME280_pressure;Samples;Min_cycle;Max_cycle;Signal;HPM_P1;HPM_P2
2023/12/14 00:01:29;;;;;;;23.40;11.60;;;;;;;3.89;100.00;101167.31;5113238;28;20035;-80
2023/12/14 00:03:55;;;;;;;17.88;11.07;;;;;;;3.88;100.00;101173.50;5113503;28;20462;-77
2023/12/14 00:06:20;;;;;;;19.48;10.80;;;;;;;3.87;100.00;101182.34;5113447;28;20026;-78
2023/12/14 00:08:45;;;;;;;19.58;11.15;;;;;;;3.86;100.00;101188.53;5113334;28;20055;-77
2023/12/14 00:11:11;;;;;;;17.60;10.50;;;;;;;3.86;100.00;101197.28;5113533;28;20040;-76
2023/12/14 00:13:38;;;;;;;17.90;10.80;;;;;;;3.86;100.00;101194.66;5113819;28;20039;-76
2023/12/14 00:16:04;;;;;;;18.17;10.18;;;;;;;3.83;100.00;101208.00;5112472;28;20024;-76
2023/12/14 00:18:29;;;;;;;18.17;10.77;;;;;;;3.81;100.00;101204.59;5113197;28;20137;-77
2023/12/14 00:20:55;;;;;;;15.50;9.85;;;;;;;3.82;100.00;101202.81;5112545;28;20024;-77
2023/12/14 00:23:22;;;;;;;20.73;10.57;;;;;;;3.82;100.00;101208.94;5113381;28;20299;-77
2023/12/14 00:25:48;;;;;;;17.08;9.98;;;;;;;3.80;100.00;101202.06;5112838;28;20051;-77
2023/12/14 00:28:13;;;;;;;15.13;9.60;;;;;;;3.78;100.00;101211.84;5112810;28;20062;-77
2023/12/14 00:30:39;;;;;;;21.50;9.57;;;;;;;3.76;100.00;101227.69;5094465;28;20032;-77
2023/12/14 00:33:04;;;;;;;16.67;10.02;;;;;;;3.78;100.00;101236.38;5094951;28;20027;-77
2023/12/14 00:35:30;;;;;;;14.50;9.73;;;;;;;3.74;100.00;101236.63;5112754;28;20034;-77
2023/12/14 00:37:55;;;;;;;16.75;9.88;;;;;;;3.73;100.00;101245.44;5112911;28;20471;-78
2023/12/14 00:40:21;;;;;;;14.95;9.55;;;;;;;3.71;100.00;101253.44;5112751;28;20024;-77
2023/12/14 00:42:46;;;;;;;15.00;9.60;;;;;;;3.73;100.00;101263.88;5112696;28;20019;-77
2023/12/14 00:45:11;;;;;;;14.75;10.00;;;;;;;3.72;100.00;101265.66;5112183;28;20028;-76
2023/12/14 00:47:37;;;;;;;15.23;9.30;;;;;;;3.71;100.00;101269.22;5112602;28;20043;-77
2023/12/14 00:50:02;;;;;;;17.90;10.30;;;;;;;3.73;100.00;101274.41;5112628;28;20039;-77
2023/12/14 00:52:28;;;;;;;15.48;9.73;;;;;;;3.71;100.00;101282.38;5112745;28;20104;-77
2023/12/14 00:54:53;;;;;;;18.67;10.48;;;;;;;3.71;100.00;101280.59;5112405;28;20024;-76
2023/12/14 00:57:18;;;;;;;19.00;10.40;;;;;;;3.73;100.00;101282.28;5094050;28;20118;-77
2023/12/14 00:59:44;;;;;;;19.60;10.52;;;;;;;3.75;100.00;101298.84;5112318;28;20081;-76
2023/12/14 01:02:09;;;;;;;21.85;10.60;;;;;;;3.74;100.00;101297.16;5112329;28;20020;-77
2023/12/14 01:04:35;;;;;;;18.95;10.35;;;;;;;3.73;100.00;101298.09;5112048;28;20023;-76
2023/12/14 01:07:00;;;;;;;21.65;10.50;;;;;;;3.72;100.00;101310.41;5112231;28;20355;-76
2023/12/14 01:09:25;;;;;;;22.25;10.23;;;;;;;3.73;100.00;101312.09;5094263;28;20027;-77
2023/12/14 01:11:51;;;;;;;23.38;11.20;;;;;;;3.73;100.00;101316.50;5112443;28;20060;-77
2023/12/14 01:14:16;;;;;;;23.42;11.18;;;;;;;3.72;100.00;101318.31;5077148;28;20034;-77
2023/12/14 01:16:41;;;;;;;26.90;10.68;;;;;;;3.70;100.00;101313.13;5111807;28;20036;-76
2023/12/14 01:19:07;;;;;;;21.65;11.48;;;;;;;3.71;100.00;101316.59;5112065;28;20054;-76
2023/12/14 01:21:33;;;;;;;22.70;11.18;;;;;;;3.70;100.00;101321.03;5093714;28;20224;-77
2023/12/14 01:24:00;;;;;;;22.73;11.20;;;;;;;3.71;100.00;101325.31;5112558;28;20028;-78
2023/12/14 01:26:26;;;;;;;20.60;10.85;;;;;;;3.70;100.00;101334.19;5114218;28;20051;-77
2023/12/14 01:28:51;;;;;;;23.20;12.10;;;;;;;3.70;100.00;101328.91;5115588;28;20483;-76
2023/12/14 01:31:17;;;;;;;25.00;11.18;;;;;;;3.70;100.00;101331.56;5115610;28;20048;-77
2023/12/14 01:33:42;;;;;;;22.80;11.23;;;;;;;3.68;100.00;101340.44;5116186;28;20028;-77
2023/12/14 01:36:08;;;;;;;23.20;11.23;;;;;;;3.71;100.00;101356.91;5097304;28;20382;-77
2023/12/14 01:38:33;;;;;;;24.38;11.05;;;;;;;3.72;100.00;101360.41;5116028;28;20405;-76
2023/12/14 01:40:59;;;;;;;30.73;11.48;;;;;;;3.69;100.00;101364.06;5115724;28;20028;-77
2023/12/14 01:43:24;;;;;;;25.63;12.93;;;;;;;3.70;100.00;101362.25;5115738;28;20423;-77
2023/12/14 01:45:50;;;;;;;26.85;11.25;;;;;;;3.71;100.00;101374.50;5116122;28;20341;-76
2023/12/14 01:48:15;;;;;;;22.55;11.07;;;;;;;3.70;100.00;101372.78;5079957;28;20131;-76
2023/12/14 01:50:40;;;;;;;20.42;11.05;;;;;;;3.70;100.00;101375.41;5115842;28;20398;-76
2023/12/14 01:53:06;;;;;;;17.95;10.75;;;;;;;3.71;100.00;101382.41;5115467;28;20099;-76
2023/12/14 01:55:31;;;;;;;21.52;11.00;;;;;;;3.70;100.00;101384.19;5115370;28;20149;-76
2023/12/14 01:57:57;;;;;;;26.73;11.45;;;;;;;3.70;100.00;101386.81;5114983;28;20043;-77
2023/12/14 02:00:40;;;;;;;22.98;9.98;;;;;;;3.71;100.00;101393.75;5096922;28;20034;-76
2023/12/14 02:03:06;;;;;;;17.33;9.75;;;;;;;3.69;100.00;101400.06;5114896;28;20027;-76
2023/12/14 02:05:31;;;;;;;22.90;10.73;;;;;;;3.66;100.00;101406.34;5115119;28;20023;-77
2023/12/14 02:07:57;;;;;;;20.52;10.90;;;;;;;3.67;100.00;101407.16;5114838;28;20124;-76
2023/12/14 02:10:23;;;;;;;23.23;10.73;;;;;;;3.66;100.00;101405.50;5115095;28;20066;-76
2023/12/14 02:12:48;;;;;;;25.40;11.18;;;;;;;3.67;100.00;101415.06;5114906;28;20050;-76
2023/12/14 02:15:13;;;;;;;20.52;9.70;;;;;;;3.66;100.00;101410.75;5115421;28;20114;-77
2023/12/14 02:17:39;;;;;;;21.90;10.60;;;;;;;3.64;100.00;101421.38;5115007;28;20031;-76
2023/12/14 02:20:05;;;;;;;19.33;9.88;;;;;;;3.65;100.00;101432.72;5114749;28;20032;-77
2023/12/14 02:22:55;;;;;;;18.90;9.75;;;;;;;3.66;100.00;101437.91;5114850;28;20034;-77
2023/12/14 02:25:23;;;;;;;19.83;9.68;;;;;;;3.65;100.00;101441.47;5115033;28;20051;-76
2023/12/14 02:27:50;;;;;;;20.15;9.82;;;;;;;3.65;100.00;101444.09;5114701;28;20028;-78
2023/12/14 02:30:16;;;;;;;20.90;9.73;;;;;;;3.65;100.00;101448.53;5114587;28;20055;-76
2023/12/14 02:32:41;;;;;;;18.67;9.90;;;;;;;3.65;100.00;101449.34;5114932;28;20120;-76
2023/12/14 02:35:08;;;;;;;15.32;9.18;;;;;;;3.66;100.00;101455.50;5114540;28;20085;-77
2023/12/14 02:37:36;;;;;;;14.90;8.95;;;;;;;3.65;100.00;101456.41;5113961;28;20407;-76
2023/12/14 02:40:03;;;;;;;17.20;9.18;;;;;;;3.63;100.00;101450.38;5114571;28;20023;-76
2023/12/14 02:42:28;;;;;;;17.27;10.15;;;;;;;3.63;100.00;101453.88;5095981;28;20031;-76
2023/12/14 02:44:54;;;;;;;21.65;9.45;;;;;;;3.62;100.00;101459.22;5114114;28;20383;-76
2023/12/14 02:47:19;;;;;;;19.15;9.68;;;;;;;3.61;100.00;101453.06;5114228;28;20040;-76
2023/12/14 02:49:45;;;;;;;21.00;9.35;;;;;;;3.62;100.00;101451.31;5096591;28;20051;-77
2023/12/14 02:52:10;;;;;;;19.77;9.20;;;;;;;3.61;100.00;101457.50;5114254;28;20478;-76
2023/12/14 02:54:39;;;;;;;16.00;8.15;;;;;;;3.63;100.00;101460.91;5095706;28;20140;-77
2023/12/14 02:57:05;;;;;;;25.02;10.15;;;;;;;3.61;100.00;101462.75;5114749;28;20031;-77
2023/12/14 02:59:30;;;;;;;18.48;9.43;;;;;;;3.61;100.00;101463.59;5114115;28;20054;-76
2023/12/14 03:01:56;;;;;;;17.35;8.90;;;;;;;3.62;100.00;101472.38;5113962;28;20066;-76
2023/12/14 03:04:21;;;;;;;18.00;9.05;;;;;;;3.60;100.00;101482.97;5095734;28;20312;-76
2023/12/14 03:06:47;;;;;;;20.50;9.25;;;;;;;3.61;100.00;101481.19;5114353;28;20027;-75
2023/12/14 03:09:12;;;;;;;19.50;9.23;;;;;;;3.61;100.00;101492.53;5113901;28;20114;-76
2023/12/14 03:11:37;;;;;;;21.25;10.35;;;;;;;3.62;100.00;101499.53;5113878;28;20028;-76
2023/12/14 03:14:03;;;;;;;14.93;8.85;;;;;;;3.61;100.00;101492.53;5113563;28;20046;-75
2023/12/14 03:16:28;;;;;;;16.13;8.82;;;;;;;3.60;100.00;101490.88;5096074;28;20068;-77
2023/12/14 03:18:55;;;;;;;14.90;8.18;;;;;;;3.58;100.00;101492.72;5113554;28;20030;-77
2023/12/14 03:21:20;;;;;;;21.58;9.48;;;;;;;3.60;100.00;101492.63;5113616;28;20083;-77
2023/12/14 03:23:46;;;;;;;17.90;8.60;;;;;;;3.57;100.00;101490.16;5114035;28;20043;-76
2023/12/14 03:26:11;;;;;;;23.50;7.80;;;;;;;3.55;100.00;101490.22;5113531;28;20032;-76
2023/12/14 03:28:37;;;;;;;15.70;7.68;;;;;;;3.55;100.00;101492.03;5113707;28;20023;-77
2023/12/14 03:31:03;;;;;;;23.50;7.65;;;;;;;3.55;100.00;101489.38;5113728;28;20534;-76
2023/12/14 03:33:29;;;;;;;25.98;7.95;;;;;;;3.52;100.00;101493.91;5113957;28;20110;-76
2023/12/14 03:35:55;;;;;;;15.13;7.30;;;;;;;3.51;100.00;101497.44;5113224;28;20383;-76
2023/12/14 03:38:20;;;;;;;14.90;7.20;;;;;;;3.51;100.00;101500.06;5113381;28;20031;-76
2023/12/14 03:40:45;;;;;;;17.77;6.75;;;;;;;3.49;100.00;101499.31;5095014;28;20030;-76
2023/12/14 03:43:11;;;;;;;16.83;7.40;;;;;;;3.48;100.00;101500.22;5113383;28;20039;-76
2023/12/14 03:45:36;;;;;;;15.02;7.20;;;;;;;3.47;100.00;101508.19;5113596;28;20023;-76
2023/12/14 03:48:01;;;;;;;19.63;7.50;;;;;;;3.46;100.00;101510.00;5113521;28;20031;-76
2023/12/14 03:50:28;;;;;;;16.83;5.85;;;;;;;3.44;100.00;101511.00;5112547;28;20034;-76
2023/12/14 03:52:53;;;;;;;14.52;5.90;;;;;;;3.43;100.00;101511.91;5113089;28;20110;-76
2023/12/14 03:55:18;;;;;;;19.25;6.15;;;;;;;3.42;100.00;101516.31;5095065;28;20086;-76
2023/12/14 03:57:44;;;;;;;17.13;7.75;;;;;;;3.41;100.00;101519.03;5113225;28;20028;-76
2023/12/14 04:00:11;;;;;;;18.30;7.40;;;;;;;3.40;100.00;101520.78;5113060;28;20439;-76
2023/12/14 04:02:36;;;;;;;11.98;6.75;;;;;;;3.40;100.00;101517.31;5112905;28;20122;-76
2023/12/14 04:05:02;;;;;;;15.60;5.85;;;;;;;3.39;100.00;101526.13;5113279;28;20110;-76
2023/12/14 04:07:27;;;;;;;13.60;6.88;;;;;;;3.38;100.00;101527.09;5094955;28;20028;-76
2023/12/14 04:09:52;;;;;;;13.70;6.68;;;;;;;3.38;100.00;101530.56;5095359;28;20042;-76
2023/12/14 04:12:18;;;;;;;9.90;6.18;;;;;;;3.37;100.00;101533.25;5113094;28;20104;-76
2023/12/14 04:14:44;;;;;;;10.85;6.22;;;;;;;3.37;100.00;101536.72;5112976;28;20068;-76
2023/12/14 04:17:10;;;;;;;10.68;6.00;;;;;;;3.38;100.00;101546.34;5095410;28;20070;-76
2023/12/14 04:19:37;;;;;;;15.23;6.55;;;;;;;3.38;100.00;101548.13;5113130;28;20070;-76
2023/12/14 04:22:03;;;;;;;14.35;6.20;;;;;;;3.35;100.00;101549.13;5112981;28;20096;-76
2023/12/14 04:24:28;;;;;;;13.40;5.95;;;;;;;3.34;100.00;101553.53;5094922;28;20114;-76
2023/12/14 04:26:53;;;;;;;16.00;5.95;;;;;;;3.36;100.00;101561.34;5113182;28;20027;-76
2023/12/14 04:29:18;;;;;;;12.38;5.03;;;;;;;3.34;100.00;101571.09;5112845;28;20348;-76
2023/12/14 04:31:44;;;;;;;12.40;5.60;;;;;;;3.35;100.00;101578.91;5112499;28;20354;-76
2023/12/14 04:34:14;;;;;;;7.90;4.97;;;;;;;3.37;100.00;101584.09;5112906;28;20023;-76
2023/12/14 04:36:39;;;;;;;12.90;5.30;;;;;;;3.38;100.00;101600.75;5113209;28;20024;-76
2023/12/14 04:39:04;;;;;;;13.40;4.95;;;;;;;3.38;100.00;101606.00;5113033;28;20027;-76
2023/12/14 04:41:30;;;;;;;13.23;4.55;;;;;;;3.38;100.00;101611.28;5112729;28;20066;-76
2023/12/14 04:43:55;;;;;;;14.35;5.10;;;;;;;3.37;100.00;101617.44;5112622;28;20028;-76
2023/12/14 04:46:20;;;;;;;11.57;5.68;;;;;;;3.37;100.00;101626.19;5094657;28;20031;-76
2023/12/14 04:48:46;;;;;;;10.73;5.25;;;;;;;3.38;100.00;101627.06;5112316;28;20455;-76
2023/12/14 04:51:12;;;;;;;10.07;5.35;;;;;;;3.38;100.00;101627.91;5112675;28;20397;-76
2023/12/14 04:53:37;;;;;;;11.82;4.82;;;;;;;3.37;100.00;101628.81;5112561;28;20285;-76
2023/12/14 04:56:03;;;;;;;11.88;5.03;;;;;;;3.39;100.00;101639.25;5094314;28;20038;-76
2023/12/14 04:58:28;;;;;;;12.10;4.95;;;;;;;3.37;100.00;101639.34;5112393;28;20023;-76
2023/12/14 05:00:54;;;;;;;11.43;4.80;;;;;;;3.38;100.00;101632.31;5095121;28;20142;-76
2023/12/14 05:03:19;;;;;;;10.43;4.65;;;;;;;3.37;100.00;101633.22;5116360;28;20031;-76
2023/12/14 05:05:44;;;;;;;10.90;4.05;;;;;;;3.38;100.00;101635.78;5116472;28;20127;-76
2023/12/14 05:08:10;;;;;;;10.18;4.60;;;;;;;3.38;100.00;101642.84;5116388;28;20058;-76
2023/12/14 05:10:35;;;;;;;8.65;4.45;;;;;;;3.37;100.00;101644.59;5116048;28;20034;-76
2023/12/14 05:13:00;;;;;;;13.82;4.40;;;;;;;3.35;100.00;101649.94;5098054;28;20058;-76
2023/12/14 05:15:26;;;;;;;9.02;4.15;;;;;;;3.33;100.00;101651.78;5116182;28;20052;-76
2023/12/14 05:17:51;;;;;;;10.25;4.30;;;;;;;3.32;100.00;101651.88;5115945;28;20073;-77
2023/12/14 05:20:16;;;;;;;8.90;4.38;;;;;;;3.29;100.00;101650.22;5116100;28;20031;-77
2023/12/14 05:22:42;;;;;;;11.15;4.65;;;;;;;3.21;100.00;101652.38;5116478;28;20020;-76
2023/12/14 05:25:08;;;;;;;11.07;4.95;;;;;;;3.09;100.00;101651.16;5116226;28;20047;-77
2023/12/14 05:27:34;;;;;;;9.13;4.55;;;;;;;2.93;100.00;101660.69;5116050;28;20035;-77
2023/12/14 05:29:59;;;;;;;6.82;4.50;;;;;;;2.73;100.00;101670.31;5116051;28;20032;-76
2023/12/14 05:32:24;;;;;;;13.20;5.25;;;;;;;2.58;100.00;101663.97;5116237;28;20064;-76
2023/12/14 05:34:50;;;;;;;18.10;5.53;;;;;;;2.44;100.00;101667.16;5116173;28;20020;-76
2023/12/14 05:37:16;;;;;;;12.55;5.18;;;;;;;2.30;100.00;101669.56;5115841;28;20028;-77
2023/12/14 05:39:43;;;;;;;15.55;5.53;;;;;;;2.17;100.00;101676.25;5115771;28;20092;-77
2023/12/14 05:42:08;;;;;;;10.18;5.68;;;;;;;2.03;100.00;101684.66;5115839;28;20035;-76
2023/12/14 05:44:34;;;;;;;12.00;6.03;;;;;;;1.90;100.00;101679.09;5115782;28;20443;-78
2023/12/14 05:46:59;;;;;;;12.18;5.95;;;;;;;1.77;100.00;101684.81;5116124;28;20103;-76
2023/12/14 05:49:24;;;;;;;9.15;4.57;;;;;;;1.66;100.00;101691.44;5116357;28;20038;-76
2023/12/14 05:51:50;;;;;;;8.30;5.20;;;;;;;1.52;100.00;101691.94;5116219;28;20024;-77
2023/12/14 05:54:15;;;;;;;9.82;5.13;;;;;;;1.43;100.00;101694.94;5097098;28;20423;-76
2023/12/14 05:56:41;;;;;;;13.63;5.97;;;;;;;1.32;100.00;101696.19;5115451;28;20054;-76
2023/12/14 05:59:06;;;;;;;8.43;5.35;;;;;;;1.28;100.00;101709.47;5115645;28;20027;-77
2023/12/14 06:01:31;;;;;;;12.52;5.47;;;;;;;1.20;100.00;101710.63;5115255;28;20023;-77
2023/12/14 06:03:57;;;;;;;9.38;4.70;;;;;;;1.12;100.00;101715.31;5115431;28;20428;-77
2023/12/14 06:06:22;;;;;;;14.55;6.53;;;;;;;1.03;100.00;101719.13;5097017;28;20316;-76
2023/12/14 06:08:48;;;;;;;11.43;5.45;;;;;;;0.98;100.00;101730.66;5115208;28;20443;-76
2023/12/14 06:11:13;;;;;;;16.70;7.30;;;;;;;0.90;100.00;101730.94;5115222;28;20031;-76
2023/12/14 06:13:39;;;;;;;17.77;9.15;;;;;;;0.84;100.00;101739.03;5114368;28;20115;-76
2023/12/14 06:16:06;;;;;;;15.43;7.70;;;;;;;0.78;100.00;101749.75;5115397;28;20032;-76
2023/12/14 06:18:32;;;;;;;11.23;6.97;;;;;;;0.75;100.00;101757.66;5115121;28;20031;-76
2023/12/14 06:20:57;;;;;;;10.85;5.95;;;;;;;0.78;100.00;101768.06;5114987;28;20076;-76
2023/12/14 06:23:23;;;;;;;14.70;7.07;;;;;;;0.87;100.00;101773.00;5114738;28;20294;-77
2023/12/14 06:25:48;;;;;;;15.43;6.63;;;;;;;0.93;100.00;101780.63;5115335;28;20031;-77
2023/12/14 06:28:13;;;;;;;9.68;6.00;;;;;;;0.94;100.00;101790.22;5114871;28;20106;-77
2023/12/14 06:30:40;;;;;;;10.25;5.80;;;;;;;0.95;100.00;101794.53;5095784;28;20088;-76
2023/12/14 06:33:06;;;;;;;9.50;5.57;;;;;;;0.98;100.00;101793.56;5113967;28;20139;-77
2023/12/14 06:35:32;;;;;;;10.82;6.78;;;;;;;1.03;100.00;101804.72;5096241;28;20043;-77
2023/12/14 06:37:57;;;;;;;9.13;5.40;;;;;;;1.05;100.00;101808.19;5114338;28;20042;-77
2023/12/14 06:40:22;;;;;;;10.35;6.65;;;;;;;1.04;100.00;101807.31;5114437;28;20098;-77
2023/12/14 06:42:49;;;;;;;9.05;6.10;;;;;;;0.99;100.00;101811.03;5114486;28;20409;-78
2023/12/14 06:45:15;;;;;;;11.45;5.90;;;;;;;0.90;100.00;101820.06;5114217;28;20034;-77
2023/12/14 06:47:42;;;;;;;12.27;6.35;;;;;;;0.83;100.00;101819.38;5114875;28;20051;-78
2023/12/14 06:50:08;;;;;;;10.07;5.45;;;;;;;0.76;100.00;101824.91;5097130;28;20463;-77
2023/12/14 06:52:33;;;;;;;11.95;6.68;;;;;;;0.66;100.00;101838.31;5114809;28;20052;-77
2023/12/14 06:54:59;;;;;;;13.52;7.00;;;;;;;0.58;100.00;101835.06;5080095;28;20031;-78
2023/12/14 06:57:24;;;;;;;10.93;6.10;;;;;;;0.53;100.00;101835.22;5114802;28;20122;-75
2023/12/14 06:59:50;;;;;;;10.38;6.80;;;;;;;0.47;100.00;101839.81;5114550;28;20030;-75
2023/12/14 07:02:15;;;;;;;8.95;6.03;;;;;;;0.39;100.00;101837.44;5114977;28;20028;-78
2023/12/14 07:04:40;;;;;;;13.20;6.53;;;;;;;0.33;100.00;101837.66;5114684;28;20028;-76
2023/12/14 07:07:06;;;;;;;11.88;6.45;;;;;;;0.25;100.00;101837.88;5114382;28;20106;-75
2023/12/14 07:09:31;;;;;;;9.57;5.82;;;;;;;0.20;100.00;101841.56;5096414;28;20028;-76
2023/12/14 07:11:57;;;;;;;11.75;5.88;;;;;;;0.16;100.00;101849.50;5113793;28;20119;-76
2023/12/14 07:14:23;;;;;;;12.88;6.35;;;;;;;0.11;100.00;101847.94;5114481;28;20027;-75
2023/12/14 07:16:48;;;;;;;8.57;5.28;;;;;;;0.09;100.00;101857.56;5114587;28;20042;-75
2023/12/14 07:19:13;;;;;;;11.30;6.63;;;;;;;0.07;100.00;101857.59;5114524;28;20063;-75
2023/12/14 07:21:39;;;;;;;8.85;5.65;;;;;;;0.05;100.00;101863.81;5114334;28;20518;-75
2023/12/14 07:24:04;;;;;;;9.55;6.20;;;;;;;0.02;100.00;101863.91;5113838;28;20027;-75
2023/12/14 07:26:30;;;;;;;10.63;6.10;;;;;;;-0.02;100.00;101871.81;5114419;28;20132;-76
2023/12/14 07:28:55;;;;;;;12.93;6.50;;;;;;;-0.02;100.00;101874.44;5114435;28;20347;-75
2023/12/14 07:31:20;;;;;;;12.63;6.00;;;;;;;0.01;100.00;101872.66;5114305;28;20122;-75
2023/12/14 07:33:46;;;;;;;10.93;5.90;;;;;;;0.02;100.00;101879.63;5114477;28;20052;-74
2023/12/14 07:36:11;;;;;;;10.93;6.93;;;;;;;-0.01;100.00;101875.31;5113860;28;20028;-76
2023/12/14 07:38:37;;;;;;;14.80;6.95;;;;;;;-0.02;100.00;101868.34;5114319;28;20400;-75
2023/12/14 07:41:03;;;;;;;10.95;5.88;;;;;;;0.03;100.00;101879.56;5114302;28;20031;-75
2023/12/14 07:43:28;;;;;;;14.68;6.15;;;;;;;0.04;100.00;101872.56;5114504;28;20027;-75
2023/12/14 07:45:54;;;;;;;7.70;5.35;;;;;;;0.05;100.00;101875.13;5114361;28;20030;-75
2023/12/14 07:48:19;;;;;;;10.45;5.95;;;;;;;0.04;100.00;101875.19;5114090;28;20387;-75
2023/12/14 07:50:45;;;;;;;12.68;7.10;;;;;;;0.05;100.00;101876.91;5114635;28;20448;-75
2023/12/14 07:53:11;;;;;;;13.75;6.50;;;;;;;0.06;100.00;101889.06;5114171;28;20030;-76
2023/12/14 07:55:36;;;;;;;14.07;6.53;;;;;;;0.06;100.00;101889.06;5113967;28;20024;-75
2023/12/14 07:58:01;;;;;;;16.55;6.88;;;;;;;0.08;100.00;101887.28;5114075;28;20433;-75
2023/12/14 08:00:27;;;;;;;10.68;6.45;;;;;;;0.09;100.00;101894.19;5114017;28;20097;-74
2023/12/14 08:02:52;;;;;;;11.73;6.82;;;;;;;0.11;100.00;101900.28;5095866;28;20051;-75
2023/12/14 08:05:18;;;;;;;10.23;6.15;;;;;;;0.12;100.00;101902.84;5113890;28;20038;-75
2023/12/14 08:07:43;;;;;;;9.80;5.88;;;;;;;0.15;100.00;101909.72;5114268;28;20439;-75
2023/12/14 08:10:09;;;;;;;9.30;5.82;;;;;;;0.19;100.00;101910.50;5095637;28;20031;-75
2023/12/14 08:12:34;;;;;;;14.70;7.47;;;;;;;0.27;100.00;101929.44;5114198;28;20104;-75
2023/12/14 08:14:59;;;;;;;14.88;7.82;;;;;;;0.35;100.00;101927.47;5095438;28;20122;-75
2023/12/14 08:17:26;;;;;;;21.65;8.13;;;;;;;0.45;100.00;101933.25;5113781;28;20072;-74
2023/12/14 08:19:52;;;;;;;15.57;8.18;;;;;;;0.53;100.00;101939.97;5113633;28;20027;-74
2023/12/14 08:22:18;;;;;;;14.95;8.82;;;;;;;0.60;100.00;101943.28;5113791;28;20023;-74
2023/12/14 08:24:44;;;;;;;13.05;8.15;;;;;;;0.74;100.00;101940.22;5113637;28;20031;-74
2023/12/14 08:27:09;;;;;;;15.48;8.35;;;;;;;0.86;100.00;101950.31;5114205;28;20053;-75
2023/12/14 08:29:34;;;;;;;20.67;9.52;;;;;;;1.01;100.00;101963.84;5113768;28;20082;-74
2023/12/14 08:32:00;;;;;;;21.38;9.70;;;;;;;1.18;100.00;101966.75;5113306;28;20440;-74
2023/12/14 08:34:27;;;;;;;21.27;10.45;;;;;;;1.40;100.00;101971.28;5114120;28;20039;-74
2023/12/14 08:36:52;;;;;;;21.13;10.93;;;;;;;1.61;100.00;101985.41;5113633;28;20106;-74
2023/12/14 08:39:18;;;;;;;19.90;10.63;;;;;;;1.82;100.00;101990.81;5113687;28;20055;-74
2023/12/14 08:41:45;;;;;;;20.85;11.13;;;;;;;2.04;100.00;101991.78;5114222;28;20051;-75
2023/12/14 08:44:10;;;;;;;21.63;11.10;;;;;;;2.21;100.00;101988.53;5113593;28;20078;-74
2023/12/14 08:46:46;;;;;;;27.80;11.35;;;;;;;2.43;100.00;101987.72;5114171;28;20359;-75
2023/12/14 08:49:13;;;;;;;19.98;10.40;;;;;;;2.55;100.00;101999.53;5113853;28;20311;-74
2023/12/14 08:51:39;;;;;;;19.58;10.82;;;;;;;2.67;100.00;101995.59;5113541;28;20024;-75
2023/12/14 08:54:06;;;;;;;25.58;10.52;;;;;;;2.77;100.00;102003.03;5113479;28;20102;-74
2023/12/14 08:56:31;;;;;;;22.63;9.57;;;;;;;2.82;100.00;102009.00;5113521;28;20027;-75
2023/12/14 08:58:58;;;;;;;15.55;8.02;;;;;;;2.85;100.00;102002.72;5113603;28;20039;-75
2023/12/14 09:01:23;;;;;;;17.73;8.15;;;;;;;2.90;100.00;102006.06;5113248;28;20063;-75
2023/12/14 09:03:49;;;;;;;18.10;7.85;;;;;;;2.97;100.00;102010.16;5113306;28;20063;-76
2023/12/14 09:06:16;;;;;;;12.98;8.18;;;;;;;3.03;100.00;102014.31;5094942;28;20361;-74
2023/12/14 09:08:42;;;;;;;11.73;8.38;;;;;;;3.06;100.00;102018.56;5113353;28;20031;-74
2023/12/14 09:11:07;;;;;;;16.98;8.20;;;;;;;3.06;100.00;102021.22;5113245;28;20367;-75
2023/12/14 09:13:32;;;;;;;20.55;7.03;;;;;;;3.05;100.00;102023.00;5113867;28;20435;-75
2023/12/14 09:15:58;;;;;;;18.10;6.90;;;;;;;3.06;100.00;102021.22;5113345;28;20102;-77
2023/12/14 09:18:24;;;;;;;13.55;7.22;;;;;;;3.06;100.00;102029.09;5114016;28;20106;-75
2023/12/14 09:20:50;;;;;;;10.30;7.00;;;;;;;3.06;100.00;102032.59;5095491;28;20031;-75
2023/12/14 09:23:19;;;;;;;13.45;6.82;;;;;;;3.10;100.00;102041.22;5113026;28;20068;-74
2023/12/14 09:25:44;;;;;;;14.38;6.97;;;;;;;3.11;100.00;102045.56;5113195;28;20024;-74
2023/12/14 09:28:10;;;;;;;13.38;6.68;;;;;;;3.14;100.00;102050.69;5112852;28;20084;-75
2023/12/14 09:30:35;;;;;;;13.25;7.50;;;;;;;3.17;100.00;102051.41;5113826;28;20034;-75
2023/12/14 09:33:01;;;;;;;13.75;7.00;;;;;;;3.18;100.00;102055.78;5113559;28;20047;-75
2023/12/14 09:35:26;;;;;;;17.75;7.85;;;;;;;3.23;100.00;102058.22;5078318;28;20031;-75
2023/12/14 09:37:53;;;;;;;16.58;7.15;;;;;;;3.29;100.00;102054.50;5113069;28;20027;-75
2023/12/14 09:40:19;;;;;;;16.67;6.85;;;;;;;3.37;100.00;102056.81;5112705;28;20063;-75
2023/12/14 09:42:44;;;;;;;17.67;6.50;;;;;;;3.46;100.00;102062.56;5113347;28;20051;-75
2023/12/14 09:45:11;;;;;;;14.35;7.18;;;;;;;3.55;100.00;102060.44;5112891;28;20023;-75
2023/12/14 09:47:37;;;;;;;16.05;6.80;;;;;;;3.62;100.00;102067.19;5113385;28;20119;-75
2023/12/14 09:50:03;;;;;;;14.07;6.72;;;;;;;3.70;100.00;102065.94;5116612;28;20032;-74
2023/12/14 09:52:29;;;;;;;14.38;6.72;;;;;;;3.83;100.00;102075.94;5116977;28;20031;-75
2023/12/14 09:54:54;;;;;;;18.63;7.07;;;;;;;3.95;100.00;102074.56;5116805;28;20023;-75
2023/12/14 09:57:20;;;;;;;15.35;7.95;;;;;;;4.11;100.00;102072.13;5116601;28;20020;-75
2023/12/14 09:59:53;;;;;;;16.70;7.15;;;;;;;4.33;100.00;102072.91;5116272;28;20027;-75
2023/12/14 10:02:18;;;;;;;15.07;7.00;;;;;;;4.40;100.00;102078.72;5116372;28;20084;-75
2023/12/14 10:04:44;;;;;;;9.63;6.30;;;;;;;4.43;100.00;102067.22;5115959;28;20027;-76
2023/12/14 10:07:09;;;;;;;17.83;7.28;;;;;;;4.44;100.00;102063.66;5116717;28;20028;-77
2023/12/14 10:09:37;;;;;;;11.30;6.43;;;;;;;4.46;100.00;102067.91;5116372;28;20069;-76
2023/12/14 10:12:08;;;;;;;9.45;6.35;;;;;;;4.58;100.00;102069.13;5098181;28;20034;-76
2023/12/14 10:14:35;;;;;;;13.45;7.03;;;;;;;4.68;100.00;102072.22;5098237;28;20027;-77
2023/12/14 10:17:22;;;;;;;11.95;5.90;;;;;;;4.79;100.00;102071.72;5097680;28;20080;-77
2023/12/14 10:19:48;;;;;;;12.98;6.78;;;;;;;4.88;100.00;102064.25;5115488;28;20132;-77
2023/12/14 10:22:15;;;;;;;10.98;6.85;;;;;;;5.01;100.00;102069.78;5116336;28;20123;-76
2023/12/14 10:24:45;;;;;;;10.48;6.18;;;;;;;5.00;100.00;102062.81;5116716;28;20023;-76
2023/12/14 10:27:11;;;;;;;10.48;6.60;;;;;;;5.05;100.00;102065.22;5115949;28;20038;-79
2023/12/14 10:29:39;;;;;;;12.75;6.80;;;;;;;5.08;100.00;102071.19;5116062;28;20132;-78
2023/12/14 10:32:06;;;;;;;14.45;7.22;;;;;;;5.12;100.00;102070.13;5115750;28;20023;-77
2023/12/14 10:34:33;;;;;;;13.73;6.15;;;;;;;5.17;100.00;102080.47;5116675;28;20048;-77
2023/12/14 10:36:59;;;;;;;15.38;5.80;;;;;;;5.21;100.00;102071.47;5115867;28;20028;-76
2023/12/14 10:39:26;;;;;;;10.95;5.35;;;;;;;5.15;100.00;102074.41;5115421;28;20111;-76
2023/12/14 10:41:56;;;;;;;12.95;5.40;;;;;;;5.07;100.00;102073.91;5115622;28;20027;-77
2023/12/14 10:44:25;;;;;;;10.70;6.32;;;;;;;4.99;100.00;102073.44;5115845;28;20024;-77
2023/12/14 10:46:56;;;;;;;10.02;5.60;;;;;;;4.87;100.00;102082.78;5115818;28;20076;-77
2023/12/14 10:49:23;;;;;;;9.93;5.10;;;;;;;4.81;100.00;102096.22;5115845;28;20015;-77
2023/12/14 10:51:49;;;;;;;11.80;6.78;;;;;;;4.79;100.00;102098.94;5115463;28;20032;-76
2023/12/14 10:54:16;;;;;;;13.07;6.68;;;;;;;4.87;100.00;102096.81;5115791;28;20024;-77
2023/12/14 10:56:41;;;;;;;11.25;6.25;;;;;;;4.94;100.00;102100.88;5115637;28;20077;-77
2023/12/14 10:59:07;;;;;;;10.40;6.05;;;;;;;5.01;100.00;102105.88;5115123;28;20028;-77
2023/12/14 11:01:34;;;;;;;9.75;6.18;;;;;;;5.00;100.00;102106.78;5114833;28;20027;-76
2023/12/14 11:04:00;;;;;;;13.88;6.47;;;;;;;4.97;100.00;102105.16;5115385;28;20451;-77
2023/12/14 11:06:31;;;;;;;16.40;6.60;;;;;;;5.05;100.00;102115.34;5114942;28;20071;-77
2023/12/14 11:09:06;;;;;;;10.75;5.97;;;;;;;5.14;100.00;102114.91;5115615;28;20051;-78
2023/12/14 11:11:41;;;;;;;13.25;6.05;;;;;;;5.24;100.00;102107.41;5116044;28;20030;-76